Westphalia, Iowa
Current Conditions -  °F | °C
As of 12:55 PM on Tuesday 27 Jan 2015 (Local Time) from KHNR Reporting Station
Clear Clear  
Wind Chill: 40°   Ceiling: Unl
Heat Index: 45°   Visibility: 10mi
Dew Point: 37°   Wind: 9mph
Humidity: 76%   Direction: 150°SSE
Pressure: 30.13"   Gusts: NA
Location:  41.72°N, 95.39°W
Report Text: KHNR 271855Z AUTO 15008KT 10SM CLR 07/03 A3013 RMK AO2
Loading
Personal Weather Stations






























Interactive Weather Map New forecast layout! Learn more

10-Day Weather Forecast

Advertisements
Track Severe Weather on mobile